createdAt,value
2023-03-15T00:02:29.484Z,9.19
2023-03-15T00:05:04.730Z,9.26
2023-03-15T00:07:52.574Z,9.29
2023-03-15T00:10:27.664Z,9.32
2023-03-15T00:13:15.520Z,9.37
2023-03-15T00:15:55.661Z,9.41
2023-03-15T00:18:43.527Z,9.42
2023-03-15T00:21:25.507Z,9.42
2023-03-15T00:24:13.518Z,9.40
2023-03-15T00:26:55.525Z,9.39
2023-03-15T00:29:50.533Z,9.39
2023-03-15T00:32:38.548Z,9.37
2023-03-15T00:35:20.526Z,9.32
2023-03-15T00:38:08.542Z,9.23
2023-03-15T00:40:44.637Z,9.13
2023-03-15T00:43:32.540Z,9.01
2023-03-15T00:46:14.547Z,8.87
2023-03-15T00:49:09.555Z,8.74
2023-03-15T00:52:04.516Z,8.66
2023-03-15T00:55:05.530Z,8.57
2023-03-15T00:57:47.299Z,8.47
2023-03-15T01:00:37.509Z,8.39
2023-03-15T01:03:18.541Z,8.28
2023-03-15T01:05:59.702Z,8.19
2023-03-15T01:08:41.603Z,8.12
2023-03-15T01:11:25.654Z,8.01
2023-03-15T01:14:07.521Z,7.89
2023-03-15T01:16:48.671Z,7.72
2023-03-15T01:19:29.512Z,7.55
2023-03-15T01:22:17.624Z,7.39
2023-03-15T01:25:12.627Z,7.18
2023-03-15T01:28:00.564Z,6.86
2023-03-15T01:30:35.701Z,6.54
2023-03-15T01:33:23.509Z,6.25
2023-03-15T01:36:21.515Z,5.96
2023-03-15T01:39:16.511Z,5.69
2023-03-15T01:42:11.511Z,5.49
2023-03-15T01:45:06.617Z,5.30
2023-03-15T01:47:49.534Z,5.16
2023-03-15T01:50:37.573Z,5.03
2023-03-15T01:53:19.504Z,4.94
2023-03-15T01:56:14.520Z,4.86
2023-03-15T01:59:04.512Z,4.76
2023-03-15T02:01:46.531Z,4.65
2023-03-15T02:04:49.507Z,4.53
2023-03-15T02:07:41.517Z,4.44
2023-03-15T02:10:21.695Z,4.38
2023-03-15T02:13:09.526Z,4.35
2023-03-15T02:15:46.997Z,4.31
2023-03-15T02:18:34.505Z,4.27
2023-03-15T02:21:24.645Z,4.23
2023-03-15T02:24:33.513Z,4.20
2023-03-15T02:27:21.561Z,4.21
2023-03-15T02:30:02.616Z,4.21
2023-03-15T02:32:43.732Z,4.17
2023-03-15T02:35:34.619Z,4.13
2023-03-15T02:38:22.660Z,4.08
2023-03-15T02:40:58.593Z,4.00
2023-03-15T02:43:46.557Z,3.93
2023-03-15T02:46:21.116Z,3.91
2023-03-15T02:49:09.630Z,3.89
2023-03-15T02:51:45.148Z,3.86
2023-03-15T02:54:33.516Z,3.83
2023-03-15T02:57:30.490Z,3.79
2023-03-15T03:00:20.544Z,3.75
2023-03-15T03:02:55.629Z,3.74
2023-03-15T03:05:43.522Z,3.77
2023-03-15T03:08:18.637Z,3.78
2023-03-15T03:11:06.498Z,3.77
2023-03-15T03:13:40.831Z,3.75
2023-03-15T03:16:29.523Z,3.72
2023-03-15T03:19:04.734Z,3.70
2023-03-15T03:21:52.494Z,3.72
2023-03-15T03:24:34.499Z,3.76
2023-03-15T03:27:29.506Z,3.78
2023-03-15T03:30:20.482Z,3.79
2023-03-15T03:33:01.581Z,3.77
2023-03-15T03:35:56.537Z,3.77
2023-03-15T03:38:44.495Z,3.76
2023-03-15T03:41:28.491Z,3.76
2023-03-15T03:44:23.523Z,3.75
2023-03-15T03:47:11.501Z,3.71
2023-03-15T03:49:52.695Z,3.67
2023-03-15T03:52:34.491Z,3.63
2023-03-15T03:55:32.559Z,3.63
2023-03-15T03:58:27.560Z,3.63
2023-03-15T04:01:15.497Z,3.63
2023-03-15T04:03:51.556Z,3.62
2023-03-15T04:06:39.492Z,3.58
2023-03-15T04:09:21.488Z,3.54
2023-03-15T04:12:09.623Z,3.53
2023-03-15T04:14:50.476Z,3.53
2023-03-15T04:17:31.501Z,3.55
2023-03-15T04:20:13.179Z,3.56
2023-03-15T04:23:01.472Z,3.58
2023-03-15T04:25:36.624Z,3.60
2023-03-15T04:28:25.502Z,3.60
2023-03-15T04:31:00.684Z,3.60
2023-03-15T04:33:48.491Z,3.63
2023-03-15T04:36:23.948Z,3.69
2023-03-15T04:39:12.522Z,3.73
2023-03-15T04:41:47.605Z,3.74
2023-03-15T04:44:35.490Z,3.73
2023-03-15T04:47:10.616Z,3.70
2023-03-15T04:49:58.505Z,3.67
2023-03-15T04:52:40.496Z,3.67
2023-03-15T04:55:35.479Z,3.70
2023-03-15T04:58:24.500Z,3.74
2023-03-15T05:01:07.498Z,3.76
2023-03-15T05:04:02.487Z,3.74
2023-03-15T05:06:50.475Z,3.72
2023-03-15T05:09:24.636Z,3.69
2023-03-15T05:12:13.490Z,3.65
2023-03-15T05:14:48.613Z,3.63
2023-03-15T05:17:36.479Z,3.61
2023-03-15T05:20:20.932Z,3.60
2023-03-15T05:23:02.495Z,3.63
2023-03-15T05:25:43.741Z,3.67
2023-03-15T05:28:25.504Z,3.67
2023-03-15T05:31:06.624Z,3.67
2023-03-15T05:33:53.491Z,3.63
2023-03-15T05:36:34.770Z,3.59
2023-03-15T05:39:16.583Z,3.56
2023-03-15T05:41:57.619Z,3.53
2023-03-15T05:44:38.508Z,3.51
2023-03-15T05:47:19.683Z,3.50
2023-03-15T05:50:00.493Z,3.50
2023-03-15T05:52:48.474Z,3.54
2023-03-15T05:55:36.491Z,3.57
2023-03-15T05:58:24.469Z,3.60
2023-03-15T06:01:01.611Z,3.62
2023-03-15T06:03:49.644Z,3.63
2023-03-15T06:06:33.583Z,3.66
2023-03-15T06:09:14.873Z,3.68
2023-03-15T06:12:02.465Z,3.72
2023-03-15T06:14:36.927Z,3.78
2023-03-15T06:17:24.468Z,3.85
2023-03-15T06:19:58.914Z,3.90
2023-03-15T06:22:46.473Z,3.97
2023-03-15T06:25:20.883Z,4.05
2023-03-15T06:28:08.472Z,4.09
2023-03-15T06:30:49.497Z,4.13
2023-03-15T06:33:31.709Z,4.15
2023-03-15T06:36:13.469Z,4.14
2023-03-15T06:38:54.765Z,4.11
2023-03-15T06:41:36.481Z,4.07
2023-03-15T06:44:17.601Z,4.03
2023-03-15T06:46:58.473Z,4.02
2023-03-15T06:49:46.524Z,3.99
2023-03-15T06:52:27.447Z,4.00
2023-03-15T06:55:25.465Z,4.04
2023-03-15T06:58:13.457Z,4.10
2023-03-15T07:00:49.744Z,4.13
2023-03-15T07:03:37.461Z,4.14
2023-03-15T07:06:12.611Z,4.13
2023-03-15T07:09:00.471Z,4.12
2023-03-15T07:11:35.577Z,4.12
2023-03-15T07:14:23.466Z,4.12
2023-03-15T07:16:57.592Z,4.14
2023-03-15T07:19:55.912Z,4.17
2023-03-15T07:22:38.486Z,4.21
2023-03-15T07:25:39.676Z,4.28
2023-03-15T07:28:33.468Z,4.32
2023-03-15T07:31:10.836Z,4.39
2023-03-15T07:33:58.466Z,4.45
2023-03-15T07:36:33.618Z,4.60
2023-03-15T07:39:21.485Z,4.78
2023-03-15T07:41:56.601Z,4.91
2023-03-15T07:44:44.526Z,5.04
2023-03-15T07:47:26.521Z,5.18
2023-03-15T07:50:22.451Z,5.27
2023-03-15T07:53:11.457Z,5.28
2023-03-15T07:55:46.580Z,5.27
2023-03-15T07:58:34.473Z,5.26
2023-03-15T08:01:09.608Z,5.24
2023-03-15T08:03:57.542Z,5.24
2023-03-15T08:06:39.043Z,5.22
2023-03-15T08:09:20.447Z,5.17
2023-03-15T08:12:01.741Z,5.12
2023-03-15T08:14:44.472Z,5.10
2023-03-15T08:18:05.274Z,5.12
2023-03-15T08:20:47.454Z,5.13
2023-03-15T08:23:36.480Z,5.13
2023-03-15T08:26:24.525Z,5.20
2023-03-15T08:29:06.461Z,5.29
2023-03-15T08:32:01.547Z,5.44
2023-03-15T08:34:49.462Z,5.52
2023-03-15T08:37:24.607Z,5.55
2023-03-15T08:40:17.460Z,5.63
2023-03-15T08:42:51.625Z,5.81
2023-03-15T08:45:56.811Z,5.97
2023-03-15T08:48:40.537Z,6.03
2023-03-15T08:51:36.457Z,6.00
2023-03-15T08:54:32.485Z,6.03
2023-03-15T08:57:20.441Z,6.15
2023-03-15T08:59:54.629Z,6.28
2023-03-15T09:02:43.525Z,6.33
2023-03-15T09:05:18.694Z,6.45
2023-03-15T09:08:07.433Z,6.56
2023-03-15T09:10:48.450Z,6.64
2023-03-15T09:13:43.455Z,6.70
2023-03-15T09:16:38.464Z,6.72
2023-03-15T09:19:26.429Z,6.73
2023-03-15T09:22:16.420Z,6.76
2023-03-15T09:25:11.455Z,6.80
2023-03-15T09:27:53.445Z,6.83
2023-03-15T09:30:42.506Z,6.90
2023-03-15T09:33:17.594Z,6.94
2023-03-15T09:36:06.630Z,7.05
2023-03-15T09:38:48.453Z,7.16
2023-03-15T09:42:00.435Z,7.27
2023-03-15T09:44:52.445Z,7.41
2023-03-15T09:48:08.426Z,7.62
2023-03-15T09:51:07.475Z,7.77
2023-03-15T09:54:12.445Z,7.79
2023-03-15T09:57:04.457Z,7.71
2023-03-15T09:59:47.575Z,7.58
2023-03-15T10:02:37.444Z,7.46
2023-03-15T10:05:27.439Z,7.46
2023-03-15T10:08:22.442Z,7.53
2023-03-15T10:11:22.514Z,7.60
2023-03-15T10:14:29.454Z,7.56
2023-03-15T10:17:11.456Z,7.45
2023-03-15T10:20:08.442Z,7.32
2023-03-15T10:23:10.537Z,7.25
2023-03-15T10:25:46.492Z,7.23
2023-03-15T10:28:37.051Z,7.26
2023-03-15T10:31:22.294Z,7.32
2023-03-15T10:34:18.437Z,7.41
2023-03-15T10:37:13.440Z,7.50
2023-03-15T10:40:06.422Z,7.54
2023-03-15T10:42:41.574Z,7.58
2023-03-15T10:45:31.427Z,7.60
2023-03-15T10:48:05.579Z,7.63
2023-03-15T10:50:53.446Z,7.66
2023-03-15T10:53:28.666Z,7.74
2023-03-15T10:56:32.473Z,7.82
2023-03-15T10:59:12.854Z,7.83
2023-03-15T11:02:34.570Z,7.82
2023-03-15T11:05:29.661Z,7.86
2023-03-15T11:08:22.435Z,7.86
2023-03-15T11:11:12.419Z,7.85
2023-03-15T11:14:07.440Z,7.90
2023-03-15T11:16:42.595Z,8.03
2023-03-15T11:19:34.418Z,8.12
2023-03-15T11:22:09.790Z,8.13
2023-03-15T11:24:59.477Z,8.20
2023-03-15T11:27:35.584Z,8.32
2023-03-15T11:30:24.424Z,8.60
2023-03-15T11:32:59.633Z,8.87
2023-03-15T11:35:54.415Z,9.07
2023-03-15T11:38:44.201Z,9.12
2023-03-15T11:41:25.440Z,9.07
2023-03-15T11:44:32.551Z,9.04
2023-03-15T11:47:36.019Z,8.92
2023-03-15T11:50:23.606Z,8.75
2023-03-15T11:53:09.438Z,8.61
2023-03-15T11:56:08.495Z,8.60
2023-03-15T11:59:22.446Z,8.55
2023-03-15T12:02:22.463Z,8.44
2023-03-15T12:05:03.898Z,8.41
2023-03-15T12:08:06.528Z,8.43
2023-03-15T12:10:57.535Z,8.49
2023-03-15T12:13:45.470Z,8.51
2023-03-15T12:16:27.559Z,8.46
2023-03-15T12:19:23.449Z,8.39
2023-03-15T12:22:10.436Z,8.41
2023-03-15T12:25:05.434Z,8.54
2023-03-15T12:27:59.421Z,8.60
2023-03-15T12:30:52.458Z,8.72
2023-03-15T12:33:58.552Z,8.87
2023-03-15T12:36:48.423Z,8.96
2023-03-15T12:39:22.586Z,9.04
2023-03-15T12:42:11.412Z,9.16
2023-03-15T12:44:57.438Z,9.25
2023-03-15T12:47:57.432Z,9.22
2023-03-15T12:50:59.405Z,9.15
2023-03-15T12:53:50.431Z,9.07
2023-03-15T12:56:32.409Z,9.10
2023-03-15T12:59:30.513Z,9.08
2023-03-15T13:02:14.424Z,9.08
2023-03-15T13:05:17.423Z,8.99
2023-03-15T13:08:02.554Z,8.99
2023-03-15T13:11:12.430Z,9.01
2023-03-15T13:14:15.424Z,9.04
2023-03-15T13:17:14.440Z,9.07
2023-03-15T13:20:35.477Z,9.21
2023-03-15T13:23:35.662Z,9.43
2023-03-15T13:26:23.422Z,9.66
2023-03-15T13:29:08.682Z,9.52
2023-03-15T13:32:28.749Z,9.20
2023-03-15T13:35:03.996Z,9.01
2023-03-15T13:37:51.451Z,8.96
2023-03-15T13:40:33.435Z,8.96
2023-03-15T13:43:28.438Z,9.10
2023-03-15T13:46:16.437Z,9.28
2023-03-15T13:48:53.576Z,9.36
2023-03-15T13:51:44.426Z,9.27
2023-03-15T13:54:26.442Z,9.12
2023-03-15T13:57:25.427Z,8.92
2023-03-15T14:00:25.423Z,8.66
2023-03-15T14:03:02.632Z,8.58
2023-03-15T14:05:55.561Z,8.53
2023-03-15T14:08:47.471Z,8.54
2023-03-15T14:11:53.007Z,8.53
2023-03-15T14:14:51.449Z,8.54
2023-03-15T14:17:40.416Z,8.61
2023-03-15T14:20:21.937Z,8.78
2023-03-15T14:23:10.438Z,9.07
2023-03-15T14:25:45.596Z,9.24
2023-03-15T14:28:33.467Z,9.31
2023-03-15T14:31:08.734Z,9.32
2023-03-15T14:34:02.432Z,9.28
2023-03-15T14:36:46.468Z,9.23
2023-03-15T14:39:48.424Z,9.11
2023-03-15T14:42:30.655Z,8.90
2023-03-15T14:45:26.680Z,8.60
2023-03-15T14:48:25.440Z,8.33
2023-03-15T14:51:01.613Z,8.14
2023-03-15T14:53:50.407Z,7.98
2023-03-15T14:56:25.611Z,7.83
2023-03-15T14:59:19.428Z,7.71
2023-03-15T15:02:01.877Z,7.63
2023-03-15T15:04:50.418Z,7.58
2023-03-15T15:07:32.574Z,7.56
2023-03-15T15:10:13.921Z,7.52
2023-03-15T15:13:06.828Z,7.50
2023-03-15T15:15:54.704Z,7.43
2023-03-15T15:18:45.404Z,7.34
2023-03-15T15:21:33.798Z,7.24
2023-03-15T15:24:31.411Z,7.17
2023-03-15T15:27:05.844Z,7.07
2023-03-15T15:29:53.523Z,6.91
2023-03-15T15:32:28.907Z,6.76
2023-03-15T15:35:16.492Z,6.56
2023-03-15T15:37:52.205Z,6.41
2023-03-15T15:40:42.492Z,6.29
2023-03-15T15:43:17.147Z,6.19
2023-03-15T15:46:05.440Z,6.09
2023-03-15T15:48:42.041Z,6.01
2023-03-15T15:51:33.418Z,5.95
2023-03-15T15:54:17.180Z,5.89
2023-03-15T15:57:09.405Z,5.82
2023-03-15T15:59:43.806Z,5.75
2023-03-15T16:02:31.508Z,5.67
2023-03-15T16:05:08.374Z,5.58
2023-03-15T16:07:58.276Z,5.47
2023-03-15T16:10:37.557Z,5.40
2023-03-15T16:13:26.437Z,5.31
2023-03-15T16:16:08.525Z,5.23
2023-03-15T16:18:51.191Z,5.14
2023-03-15T16:21:40.415Z,5.06
2023-03-15T16:24:25.532Z,4.99
2023-03-15T16:27:08.437Z,4.91
2023-03-15T16:29:55.207Z,4.83
2023-03-15T16:32:44.481Z,4.76
2023-03-15T16:35:40.765Z,4.67
2023-03-15T16:38:18.749Z,4.60
2023-03-15T16:41:07.709Z,4.53
2023-03-15T16:43:43.132Z,4.46
2023-03-15T16:46:32.052Z,4.38
2023-03-15T16:49:08.479Z,4.30
2023-03-15T16:52:00.615Z,4.20
2023-03-15T16:54:51.393Z,4.14
2023-03-15T16:57:39.408Z,4.06
2023-03-15T17:00:21.531Z,4.00
2023-03-15T17:03:11.400Z,3.94
2023-03-15T17:05:54.464Z,3.90
2023-03-15T17:08:49.465Z,3.86
2023-03-15T17:11:38.707Z,3.82
2023-03-15T17:14:14.596Z,3.78
2023-03-15T17:17:02.423Z,3.74
2023-03-15T17:19:44.420Z,3.71
2023-03-15T17:22:39.400Z,3.67
2023-03-15T17:25:27.418Z,3.65
2023-03-15T17:28:02.520Z,3.62
2023-03-15T17:30:55.217Z,3.61
2023-03-15T17:33:41.541Z,3.58
2023-03-15T17:36:32.478Z,3.56
2023-03-15T17:39:07.559Z,3.55
2023-03-15T17:41:55.402Z,3.53
2023-03-15T17:44:38.438Z,3.51
2023-03-15T17:47:26.850Z,3.48
2023-03-15T17:50:07.553Z,3.44
2023-03-15T17:52:51.501Z,3.39
2023-03-15T17:55:46.404Z,3.35
2023-03-15T17:58:34.386Z,3.32
2023-03-15T18:01:10.115Z,3.30
2023-03-15T18:03:59.504Z,3.30
2023-03-15T18:06:34.519Z,3.28
2023-03-15T18:09:22.370Z,3.26
2023-03-15T18:12:03.612Z,3.27
2023-03-15T18:14:45.396Z,3.28
2023-03-15T18:17:26.754Z,3.30
2023-03-15T18:20:08.384Z,3.33
2023-03-15T18:22:49.559Z,3.34
2023-03-15T18:25:35.401Z,3.36
2023-03-15T18:28:23.700Z,3.38
2023-03-15T18:30:58.906Z,3.39
2023-03-15T18:33:46.465Z,3.43
2023-03-15T18:36:24.708Z,3.46
2023-03-15T18:39:13.474Z,3.47
2023-03-15T18:41:47.802Z,3.48
2023-03-15T18:44:35.540Z,3.47
2023-03-15T18:47:19.850Z,3.47
2023-03-15T18:50:09.927Z,3.46
2023-03-15T18:52:52.398Z,3.45
2023-03-15T18:55:42.725Z,3.42
2023-03-15T18:58:38.412Z,3.38
2023-03-15T19:01:29.610Z,3.33
2023-03-15T19:04:04.654Z,3.28
2023-03-15T19:06:52.751Z,3.23
2023-03-15T19:09:29.502Z,3.20
2023-03-15T19:12:18.382Z,3.17
2023-03-15T19:14:53.519Z,3.15
2023-03-15T19:17:41.381Z,3.13
2023-03-15T19:20:24.817Z,3.11
2023-03-15T19:23:06.523Z,3.10
2023-03-15T19:25:47.542Z,3.08
2023-03-15T19:28:29.368Z,3.06
2023-03-15T19:31:18.423Z,3.06
2023-03-15T19:33:53.225Z,3.04
2023-03-15T19:36:43.448Z,3.03
2023-03-15T19:39:19.300Z,3.02
2023-03-15T19:42:08.365Z,3.02
2023-03-15T19:44:43.856Z,3.02
2023-03-15T19:47:31.372Z,3.02
2023-03-15T19:50:13.660Z,3.03
2023-03-15T19:52:55.204Z,3.01
2023-03-15T19:55:37.359Z,3.00
2023-03-15T19:58:25.361Z,3.00
2023-03-15T20:01:01.757Z,2.99
2023-03-15T20:03:42.384Z,2.98
2023-03-15T20:06:31.373Z,3.00
2023-03-15T20:09:07.898Z,3.04
2023-03-15T20:11:55.360Z,3.06
2023-03-15T20:14:29.942Z,3.09
2023-03-15T20:17:19.376Z,3.08
2023-03-15T20:19:55.244Z,3.07
2023-03-15T20:22:47.677Z,3.06
2023-03-15T20:25:22.771Z,3.04
2023-03-15T20:28:11.372Z,3.02
2023-03-15T20:30:46.762Z,2.96
2023-03-15T20:33:34.564Z,2.92
2023-03-15T20:36:16.461Z,2.89
2023-03-15T20:38:57.488Z,2.85
2023-03-15T20:41:40.557Z,2.80
2023-03-15T20:44:22.506Z,2.76
2023-03-15T20:47:05.408Z,2.67
2023-03-15T20:49:53.393Z,2.58
2023-03-15T20:52:28.134Z,2.53
2023-03-15T20:55:16.376Z,2.47
2023-03-15T20:58:12.353Z,2.43
2023-03-15T21:01:09.446Z,2.41
2023-03-15T21:03:44.575Z,2.40
2023-03-15T21:06:32.361Z,2.39
2023-03-15T21:09:07.650Z,2.40
2023-03-15T21:11:59.175Z,2.42
2023-03-15T21:14:36.621Z,2.43
2023-03-15T21:17:24.348Z,2.41
2023-03-15T21:19:58.527Z,2.41
2023-03-15T21:22:46.368Z,2.42
2023-03-15T21:25:21.548Z,2.39
2023-03-15T21:28:11.652Z,2.37
2023-03-15T21:30:47.579Z,2.37
2023-03-15T21:33:36.336Z,2.38
2023-03-15T21:36:11.464Z,2.39
2023-03-15T21:38:59.340Z,2.38
2023-03-15T21:41:34.547Z,2.37
2023-03-15T21:44:23.352Z,2.39
2023-03-15T21:47:05.335Z,2.37
2023-03-15T21:50:00.333Z,2.35
2023-03-15T21:52:55.323Z,2.32
2023-03-15T21:55:53.325Z,2.29
2023-03-15T21:58:48.560Z,2.27
2023-03-15T22:01:36.449Z,2.26
2023-03-15T22:04:11.511Z,2.27
2023-03-15T22:06:59.328Z,2.29
2023-03-15T22:09:34.541Z,2.35
2023-03-15T22:12:26.279Z,2.40
2023-03-15T22:15:10.748Z,2.45
2023-03-15T22:17:58.455Z,2.47
2023-03-15T22:20:35.547Z,2.47
2023-03-15T22:23:27.091Z,2.47
2023-03-15T22:26:02.451Z,2.46
2023-03-15T22:28:50.339Z,2.44
2023-03-15T22:31:32.905Z,2.41
2023-03-15T22:34:20.337Z,2.37
2023-03-15T22:36:55.510Z,2.35
2023-03-15T22:39:44.039Z,2.30
2023-03-15T22:42:27.079Z,2.24
2023-03-15T22:45:17.427Z,2.18
2023-03-15T22:47:53.341Z,2.14
2023-03-15T22:50:43.124Z,2.11
2023-03-15T22:53:18.975Z,2.09
2023-03-15T22:56:15.077Z,2.07
2023-03-15T22:59:05.334Z,2.10
2023-03-15T23:01:40.599Z,2.11
2023-03-15T23:04:30.672Z,2.09
2023-03-15T23:07:06.543Z,2.08
2023-03-15T23:09:54.368Z,2.07
2023-03-15T23:12:35.833Z,2.03
2023-03-15T23:15:24.358Z,1.98
2023-03-15T23:18:06.544Z,1.92
2023-03-15T23:20:49.324Z,1.86
2023-03-15T23:23:37.547Z,1.81
2023-03-15T23:26:22.533Z,1.77
2023-03-15T23:29:10.648Z,1.76
2023-03-15T23:31:46.254Z,1.78
2023-03-15T23:34:34.318Z,1.77
2023-03-15T23:37:10.590Z,1.78
2023-03-15T23:40:00.325Z,1.77
2023-03-15T23:42:35.833Z,1.78
2023-03-15T23:45:24.334Z,1.77
2023-03-15T23:47:58.934Z,1.77
2023-03-15T23:50:47.316Z,1.77
2023-03-15T23:53:21.811Z,1.80
2023-03-15T23:56:09.329Z,1.82
2023-03-15T23:58:50.992Z,1.83
